Joes Pond, Vermont
Current Conditions -  °F | °C
As of 9:15 AM on Thursday 18 Dec 2014 (Local Time) from KCDA Reporting Station
Unknown Precip Unknown Precip  
Wind Chill: 23°   Ceiling: 2900
Heat Index: 31°   Visibility: 5mi
Dew Point: 27°   Wind: 10mph
Humidity: 85%   Direction: 260°W
Pressure: 29.76"   Gusts: NA
Location:  44.4635°N, 72.2231°W
Report Text: KCDA 181415Z AUTO 26009KT 5SM UP SCT014 OVC029 00/M03 A2976 RMK AO2 T10031026
Loading
Personal Weather Stations






























Interactive Weather Map New forecast layout! Learn more

10-Day Weather Forecast

Advertisements
Track Severe Weather on mobile